createdAt,value
2022-08-26T00:04:28.608Z,4.50
2022-08-26T00:09:26.666Z,5.35
2022-08-26T00:14:29.549Z,4.85
2022-08-26T00:19:33.819Z,4.82
2022-08-26T00:24:32.136Z,6.07
2022-08-26T00:29:34.787Z,4.45
2022-08-26T00:34:32.696Z,4.97
2022-08-26T00:39:29.843Z,4.90
2022-08-26T00:44:27.833Z,5.05
2022-08-26T00:49:39.156Z,4.15
2022-08-26T00:54:46.209Z,4.78
2022-08-26T00:59:50.687Z,5.38
2022-08-26T01:04:55.610Z,5.07
2022-08-26T01:09:54.054Z,4.57
2022-08-26T01:14:52.396Z,4.55
2022-08-26T01:19:53.458Z,4.68
2022-08-26T01:24:51.856Z,4.15
2022-08-26T01:29:53.305Z,4.78
2022-08-26T01:34:50.725Z,4.43
2022-08-26T01:39:51.647Z,3.92
2022-08-26T01:44:51.496Z,4.25
2022-08-26T01:49:51.850Z,4.32
2022-08-26T01:54:53.368Z,4.57
2022-08-26T01:59:53.099Z,4.55
2022-08-26T02:04:57.081Z,4.82
2022-08-26T02:09:54.996Z,5.40
2022-08-26T02:14:56.050Z,4.10
2022-08-26T02:19:58.600Z,4.35
2022-08-26T02:25:00.231Z,4.03
2022-08-26T02:30:03.021Z,3.83
2022-08-26T02:35:31.847Z,4.60
2022-08-26T02:40:45.266Z,4.22
2022-08-26T02:45:45.364Z,3.60
2022-08-26T02:50:44.164Z,3.67
2022-08-26T02:55:42.323Z,3.97
2022-08-26T03:00:53.470Z,4.05
2022-08-26T03:05:56.773Z,4.70
2022-08-26T03:10:56.075Z,4.00
2022-08-26T03:15:53.130Z,4.10
2022-08-26T03:20:50.351Z,4.82
2022-08-26T03:25:49.873Z,4.03
2022-08-26T03:30:48.938Z,4.50
2022-08-26T03:35:48.019Z,4.22
2022-08-26T03:40:48.080Z,4.32
2022-08-26T03:45:45.118Z,4.47
2022-08-26T03:50:44.009Z,5.20
2022-08-26T03:55:41.895Z,4.32
2022-08-26T04:00:40.314Z,7.20
2022-08-26T04:05:39.969Z,5.28
2022-08-26T04:11:03.807Z,5.80
2022-08-26T04:16:05.307Z,4.53
2022-08-26T04:21:19.599Z,6.20
2022-08-26T04:26:42.739Z,4.43
2022-08-26T04:31:40.933Z,7.07
2022-08-26T04:36:39.935Z,4.90
2022-08-26T04:41:44.979Z,5.78
2022-08-26T04:46:53.339Z,4.20
2022-08-26T04:51:56.142Z,4.40
2022-08-26T04:56:58.852Z,4.55
2022-08-26T05:01:56.739Z,5.93
2022-08-26T05:07:06.319Z,4.35
2022-08-26T05:12:15.257Z,4.03
2022-08-26T05:17:15.075Z,3.55
2022-08-26T05:22:13.161Z,4.20
2022-08-26T05:27:11.999Z,4.50
2022-08-26T05:32:20.419Z,5.70
2022-08-26T05:37:17.786Z,8.73
2022-08-26T05:42:19.155Z,5.75
2022-08-26T05:53:04.772Z,3.63
2022-08-26T05:58:21.563Z,5.28
2022-08-26T06:03:47.248Z,4.70
2022-08-26T06:08:56.903Z,5.72
2022-08-26T06:14:03.835Z,5.00
2022-08-26T06:19:15.408Z,6.40
2022-08-26T06:24:34.701Z,4.35
2022-08-26T06:29:36.065Z,4.50
2022-08-26T06:34:33.313Z,6.03
2022-08-26T06:39:41.295Z,4.60
2022-08-26T06:44:41.032Z,5.75
2022-08-26T06:49:44.206Z,5.43
2022-08-26T06:55:01.862Z,5.00
2022-08-26T07:00:01.346Z,5.40
2022-08-26T07:05:14.590Z,5.32
2022-08-26T07:10:19.536Z,5.45
2022-08-26T07:15:17.818Z,4.53
2022-08-26T07:20:24.216Z,4.47
2022-08-26T07:25:42.273Z,4.22
2022-08-26T07:30:58.240Z,4.40
2022-08-26T07:35:55.534Z,3.65
2022-08-26T07:41:23.810Z,4.20
2022-08-26T07:46:53.191Z,5.43
2022-08-26T07:51:53.748Z,4.60
2022-08-26T07:56:51.184Z,4.43
2022-08-26T08:01:50.001Z,4.72
2022-08-26T08:06:47.073Z,4.63
2022-08-26T08:11:46.080Z,4.55
2022-08-26T08:16:59.012Z,4.55
2022-08-26T08:21:56.570Z,3.95
2022-08-26T08:26:53.583Z,4.85
2022-08-26T08:32:11.600Z,4.32
2022-08-26T08:37:23.162Z,5.65
2022-08-26T08:43:00.742Z,4.35
2022-08-26T08:48:01.195Z,5.25
2022-08-26T08:53:13.163Z,4.68
2022-08-26T08:58:23.654Z,6.88
2022-08-26T09:03:36.647Z,4.07
2022-08-26T09:08:42.078Z,3.85
2022-08-26T09:13:46.471Z,3.72
2022-08-26T09:19:10.575Z,4.43
2022-08-26T09:24:18.749Z,4.18
2022-08-26T09:29:24.031Z,3.80
2022-08-26T09:34:23.866Z,3.72
2022-08-26T09:39:47.163Z,4.28
2022-08-26T09:45:04.544Z,4.25
2022-08-26T09:50:38.556Z,4.47
2022-08-26T09:55:41.849Z,3.70
2022-08-26T10:01:13.475Z,3.95
2022-08-26T10:06:32.266Z,3.95
2022-08-26T10:11:47.651Z,3.83
2022-08-26T10:16:53.060Z,3.78
2022-08-26T10:21:56.235Z,4.50
2022-08-26T10:27:02.536Z,3.85
2022-08-26T10:32:18.777Z,3.53
2022-08-26T10:37:36.661Z,3.72
2022-08-26T10:42:37.608Z,3.60
2022-08-26T10:47:43.094Z,3.08
2022-08-26T10:52:55.791Z,3.25
2022-08-26T10:58:04.993Z,3.30
2022-08-26T11:03:10.689Z,3.28
2022-08-26T11:08:33.811Z,3.17
2022-08-26T11:14:29.250Z,3.97
2022-08-26T11:20:13.768Z,3.75
2022-08-26T11:25:38.978Z,3.55
2022-08-26T11:30:52.192Z,3.97
2022-08-26T11:35:55.513Z,4.03
2022-08-26T11:41:29.308Z,3.28
2022-08-26T11:46:47.779Z,4.00
2022-08-26T11:51:48.644Z,5.68
2022-08-26T11:57:09.532Z,3.88
2022-08-26T12:02:27.431Z,3.80
2022-08-26T12:07:27.838Z,4.80
2022-08-26T12:12:34.782Z,8.32
2022-08-26T12:17:32.374Z,3.80
2022-08-26T12:22:43.509Z,4.10
2022-08-26T12:27:50.621Z,3.42
2022-08-26T12:32:57.959Z,4.07
2022-08-26T12:37:57.622Z,4.55
2022-08-26T12:42:56.559Z,4.60
2022-08-26T12:47:56.719Z,4.00
2022-08-26T12:52:58.555Z,3.75
2022-08-26T12:58:25.027Z,4.60
2022-08-26T13:04:02.453Z,4.47
2022-08-26T13:09:06.473Z,3.50
2022-08-26T13:14:07.397Z,4.05
2022-08-26T13:20:02.688Z,4.20
2022-08-26T13:25:27.971Z,6.68
2022-08-26T13:30:29.422Z,5.88
2022-08-26T13:35:27.613Z,7.15
2022-08-26T13:40:34.820Z,8.77
2022-08-26T13:45:48.914Z,5.78
2022-08-26T13:50:47.531Z,4.18
2022-08-26T13:55:45.162Z,4.22
2022-08-26T14:00:51.020Z,7.38
2022-08-26T14:05:48.507Z,5.38
2022-08-26T14:10:45.737Z,5.55
2022-08-26T14:15:53.460Z,7.90
2022-08-26T14:21:32.445Z,4.55
2022-08-26T14:26:43.733Z,4.13
2022-08-26T14:31:42.142Z,5.05
2022-08-26T14:36:43.993Z,3.75
2022-08-26T14:41:56.429Z,4.45
2022-08-26T14:46:54.730Z,4.50
2022-08-26T14:51:51.886Z,4.75
2022-08-26T14:56:53.966Z,5.63
2022-08-26T15:07:09.803Z,4.75
2022-08-26T15:12:25.315Z,5.70
2022-08-26T15:17:37.661Z,4.47
2022-08-26T15:22:35.602Z,5.40
2022-08-26T15:32:58.770Z,4.72
2022-08-26T15:38:10.182Z,6.53
2022-08-26T15:43:25.596Z,5.10
2022-08-26T15:48:27.998Z,4.68
2022-08-26T15:53:27.620Z,5.32
2022-08-26T15:58:25.863Z,5.07
2022-08-26T16:03:59.093Z,5.25
2022-08-26T16:09:21.113Z,6.63
2022-08-26T16:14:20.346Z,6.18
2022-08-26T16:19:18.117Z,6.32
2022-08-26T16:24:15.865Z,5.53
2022-08-26T16:29:30.009Z,6.15
2022-08-26T16:34:56.629Z,7.30
2022-08-26T16:40:10.274Z,7.40
2022-08-26T16:45:11.526Z,6.28
2022-08-26T16:50:36.567Z,7.60
2022-08-26T16:56:05.277Z,5.68
2022-08-26T17:01:21.575Z,6.60
2022-08-26T17:06:22.133Z,6.63
2022-08-26T17:11:30.059Z,5.40
2022-08-26T17:16:27.611Z,8.30
2022-08-26T17:21:28.875Z,6.80
2022-08-26T17:26:26.220Z,6.70
2022-08-26T17:31:34.738Z,9.77
2022-08-26T17:42:31.978Z,7.43
2022-08-26T17:47:56.760Z,7.88
2022-08-26T17:52:59.135Z,7.55
2022-08-26T17:57:56.268Z,7.90
2022-08-26T18:03:01.934Z,7.60
2022-08-26T18:08:26.856Z,11.35
2022-08-26T18:13:47.341Z,9.70
2022-08-26T18:18:45.965Z,8.85
2022-08-26T18:23:46.871Z,8.35
2022-08-26T18:28:47.260Z,7.88
2022-08-26T18:33:44.729Z,9.00
2022-08-26T18:38:42.829Z,8.88
2022-08-26T18:43:42.769Z,12.32
2022-08-26T18:48:41.032Z,7.32
2022-08-26T18:53:38.189Z,7.07
2022-08-26T18:58:35.198Z,6.35
2022-08-26T19:03:35.302Z,7.60
2022-08-26T19:08:36.804Z,6.07
2022-08-26T19:18:58.431Z,8.00
2022-08-26T19:23:58.108Z,6.63
2022-08-26T19:29:00.590Z,8.32
2022-08-26T19:34:04.690Z,7.65
2022-08-26T19:39:05.605Z,7.55
2022-08-26T19:44:11.320Z,6.95
2022-08-26T19:49:09.499Z,6.60
2022-08-26T19:54:06.679Z,6.65
2022-08-26T19:59:03.800Z,5.53
2022-08-26T20:04:01.016Z,6.95
2022-08-26T20:08:58.877Z,5.35
2022-08-26T20:13:56.666Z,6.05
2022-08-26T20:19:12.477Z,7.00
2022-08-26T20:24:13.369Z,6.80
2022-08-26T20:29:12.326Z,6.43
2022-08-26T20:34:09.899Z,6.65
2022-08-26T20:39:07.531Z,6.38
2022-08-26T20:44:06.284Z,7.82
2022-08-26T20:49:06.047Z,7.10
2022-08-26T20:54:05.931Z,7.03
2022-08-26T20:59:04.384Z,6.60
2022-08-26T21:04:04.264Z,6.75
2022-08-26T21:09:08.632Z,6.57
2022-08-26T21:19:17.621Z,7.28
2022-08-26T21:24:14.691Z,6.93
2022-08-26T21:29:14.743Z,7.68
2022-08-26T21:34:11.893Z,6.38
2022-08-26T21:39:11.997Z,6.38
2022-08-26T21:44:11.085Z,6.85
2022-08-26T21:49:12.418Z,7.00
2022-08-26T21:54:12.238Z,7.78
2022-08-26T21:59:10.337Z,7.78
2022-08-26T22:04:09.275Z,7.43
2022-08-26T22:09:06.271Z,7.45
2022-08-26T22:14:07.242Z,7.90
2022-08-26T22:19:04.360Z,8.15
2022-08-26T22:24:04.181Z,7.97
2022-08-26T22:29:03.248Z,7.93
2022-08-26T22:34:01.219Z,7.57
2022-08-26T22:38:58.640Z,7.10
2022-08-26T22:43:55.805Z,8.65
2022-08-26T22:48:54.105Z,8.13
2022-08-26T22:53:52.000Z,8.50
2022-08-26T22:58:49.148Z,7.40
2022-08-26T23:03:46.461Z,8.50
2022-08-26T23:08:45.747Z,8.82
2022-08-26T23:13:43.769Z,8.65
2022-08-26T23:18:41.916Z,6.95
2022-08-26T23:23:38.917Z,7.85
2022-08-26T23:28:36.014Z,9.20
2022-08-26T23:33:52.253Z,9.73
2022-08-26T23:38:52.601Z,10.20
2022-08-26T23:43:50.992Z,10.68
2022-08-26T23:48:48.873Z,8.70
2022-08-26T23:53:45.898Z,10.93
2022-08-26T23:58:43.221Z,10.90
